Time;durP1;ratioP1;P1;durP2;ratioP2;P2;SDS_P1;SDS_P2;PMS_P1;PMS_P2;Temp;Humidity;BMP_temperature;BMP_pressure;BME280_temperature;BME280_humidity;BME280_pressure;Samples;Min_cycle;Max_cycle;Signal;HPM_P1;HPM_P2
2023/12/20 00:00:09;;;;;;;0.80;0.80;;;;;;;;;;5058297;28;20144;-77
2023/12/20 00:02:35;;;;;;;2.15;1.17;;;;;;;;;;5058520;28;20067;-79
2023/12/20 00:05:01;;;;;;;1.50;1.17;;;;;;;;;;5060383;28;20033;-78
2023/12/20 00:07:27;;;;;;;2.58;1.30;;;;;;;;;;5050588;28;20025;-77
2023/12/20 00:09:53;;;;;;;1.02;1.02;;;;;;;;;;5059181;28;20064;-77
2023/12/20 00:12:19;;;;;;;2.55;1.60;;;;;;;;;;5056261;28;20376;-77
2023/12/20 00:14:46;;;;;;;2.78;1.60;;;;;;;;;;5060429;28;20047;-77
2023/12/20 00:17:12;;;;;;;1.90;1.08;;;;;;;;;;5057910;28;20025;-78
2023/12/20 00:19:38;;;;;;;1.90;1.10;;;;;;;;;;5058605;28;20025;-77
2023/12/20 00:22:04;;;;;;;1.80;1.20;;;;;;;;;;5076723;28;20021;-77
2023/12/20 00:24:30;;;;;;;1.23;1.00;;;;;;;;;;5058684;28;20076;-78
2023/12/20 00:26:56;;;;;;;1.83;1.25;;;;;;;;;;5054499;28;20021;-77
2023/12/20 00:29:23;;;;;;;1.30;0.88;;;;;;;;;;5057441;28;20033;-78
2023/12/20 00:31:49;;;;;;;1.02;0.93;;;;;;;;;;5059324;28;20055;-78
2023/12/20 00:34:15;;;;;;;0.85;0.80;;;;;;;;;;5057655;28;20087;-77
2023/12/20 00:36:41;;;;;;;1.50;1.08;;;;;;;;;;5052700;28;20086;-78
2023/12/20 00:39:07;;;;;;;1.52;1.23;;;;;;;;;;5054183;28;20029;-78
2023/12/20 00:41:33;;;;;;;1.63;1.20;;;;;;;;;;5056610;28;20032;-78
2023/12/20 00:43:59;;;;;;;1.20;1.10;;;;;;;;;;5052972;28;20029;-78
2023/12/20 00:46:25;;;;;;;1.42;1.17;;;;;;;;;;5053012;28;20024;-77
2023/12/20 00:48:51;;;;;;;3.47;1.55;;;;;;;;;;5053007;28;20127;-76
2023/12/20 00:51:17;;;;;;;2.33;1.40;;;;;;;;;;5052832;28;20036;-78
2023/12/20 00:53:43;;;;;;;1.95;1.30;;;;;;;;;;5052762;28;20021;-77
2023/12/20 00:56:10;;;;;;;2.33;1.45;;;;;;;;;;5048168;28;20025;-79
2023/12/20 00:58:36;;;;;;;1.65;1.10;;;;;;;;;;5052712;28;20033;-78
2023/12/20 01:01:02;;;;;;;1.52;1.20;;;;;;;;;;5072503;28;20008;-79
2023/12/20 01:03:28;;;;;;;1.15;0.98;;;;;;;;;;5060865;28;20013;-78
2023/12/20 01:05:54;;;;;;;2.72;0.98;;;;;;;;;;5054023;28;20536;-78
2023/12/20 01:08:20;;;;;;;1.10;1.00;;;;;;;;;;5053756;28;20029;-78
2023/12/20 01:10:46;;;;;;;1.13;0.93;;;;;;;;;;5053280;28;20033;-77
2023/12/20 01:13:13;;;;;;;1.10;0.75;;;;;;;;;;5053550;28;20075;-78
2023/12/20 01:15:39;;;;;;;1.23;1.08;;;;;;;;;;5051643;28;20044;-77
2023/12/20 01:18:05;;;;;;;0.80;0.80;;;;;;;;;;5051653;28;20177;-78
2023/12/20 01:20:31;;;;;;;1.38;0.73;;;;;;;;;;5055553;28;20036;-78
2023/12/20 01:22:57;;;;;;;0.63;0.63;;;;;;;;;;5057650;28;20044;-78
2023/12/20 01:25:23;;;;;;;1.58;0.98;;;;;;;;;;5058397;28;20036;-78
2023/12/20 01:27:50;;;;;;;1.50;0.90;;;;;;;;;;5060569;28;20029;-78
2023/12/20 01:30:16;;;;;;;0.82;0.82;;;;;;;;;;5058672;28;20107;-77
2023/12/20 01:32:42;;;;;;;1.10;0.95;;;;;;;;;;5057218;28;20021;-78
2023/12/20 01:35:08;;;;;;;1.10;0.90;;;;;;;;;;5057514;28;20029;-77
2023/12/20 01:37:34;;;;;;;2.47;1.15;;;;;;;;;;5054332;28;20025;-77
2023/12/20 01:40:00;;;;;;;1.20;0.80;;;;;;;;;;5056865;28;20029;-78
2023/12/20 01:42:26;;;;;;;0.77;0.77;;;;;;;;;;5056137;28;20056;-78
2023/12/20 01:44:52;;;;;;;1.08;0.90;;;;;;;;;;5058588;28;20025;-78
2023/12/20 01:47:19;;;;;;;1.70;1.15;;;;;;;;;;5056496;28;20076;-77
2023/12/20 01:49:45;;;;;;;0.70;0.70;;;;;;;;;;5057515;28;20075;-78
2023/12/20 01:52:11;;;;;;;1.23;1.13;;;;;;;;;;5059625;28;20029;-79
2023/12/20 01:54:38;;;;;;;0.47;0.47;;;;;;;;;;5056693;28;20020;-77
2023/12/20 01:57:04;;;;;;;1.10;0.95;;;;;;;;;;5057443;28;20021;-78
2023/12/20 01:59:31;;;;;;;0.60;0.50;;;;;;;;;;5055965;28;20163;-77
2023/12/20 02:01:57;;;;;;;2.40;0.68;;;;;;;;;;5056972;28;20388;-77
2023/12/20 02:04:23;;;;;;;0.70;0.65;;;;;;;;;;5065673;28;20041;-78
2023/12/20 02:06:53;;;;;;;0.98;0.80;;;;;;;;;;5070186;28;20025;-78
2023/12/20 02:09:19;;;;;;;0.52;0.52;;;;;;;;;;5058866;28;20115;-77
2023/12/20 02:11:45;;;;;;;0.73;0.73;;;;;;;;;;5056714;28;20025;-77
2023/12/20 02:14:11;;;;;;;0.90;0.70;;;;;;;;;;5059727;28;20091;-79
2023/12/20 02:16:37;;;;;;;0.70;0.68;;;;;;;;;;5061536;28;20032;-77
2023/12/20 02:19:05;;;;;;;0.77;0.77;;;;;;;;;;5059475;28;20422;-77
2023/12/20 02:21:34;;;;;;;0.73;0.52;;;;;;;;;;5073520;28;20041;-77
2023/12/20 02:24:01;;;;;;;0.73;0.73;;;;;;;;;;5059193;28;20025;-78
2023/12/20 02:26:27;;;;;;;0.70;0.70;;;;;;;;;;5057342;28;20570;-77
2023/12/20 02:28:54;;;;;;;0.40;0.40;;;;;;;;;;5044917;28;20039;-77
2023/12/20 02:31:23;;;;;;;0.88;0.70;;;;;;;;;;5054924;28;20082;-77
2023/12/20 02:33:50;;;;;;;0.88;0.55;;;;;;;;;;5055112;28;20109;-77
2023/12/20 02:36:16;;;;;;;0.50;0.50;;;;;;;;;;5054384;28;20033;-78
2023/12/20 02:38:42;;;;;;;0.65;0.65;;;;;;;;;;5055331;28;20075;-78
2023/12/20 02:41:08;;;;;;;0.63;0.35;;;;;;;;;;5053625;28;20457;-78
2023/12/20 02:43:34;;;;;;;0.60;0.60;;;;;;;;;;5057808;28;20064;-78
2023/12/20 02:46:00;;;;;;;0.40;0.40;;;;;;;;;;5054068;28;20071;-78
2023/12/20 02:48:26;;;;;;;0.60;0.45;;;;;;;;;;5053059;28;20059;-78
2023/12/20 02:50:53;;;;;;;0.40;0.40;;;;;;;;;;5053700;28;20028;-78
2023/12/20 02:53:19;;;;;;;0.45;0.45;;;;;;;;;;5054150;28;20036;-77
2023/12/20 02:55:45;;;;;;;0.40;0.40;;;;;;;;;;5056479;28;20352;-77
2023/12/20 02:58:11;;;;;;;0.20;0.20;;;;;;;;;;5055647;28;20036;-77
2023/12/20 03:00:37;;;;;;;0.25;0.25;;;;;;;;;;5056790;28;20028;-77
2023/12/20 03:03:03;;;;;;;0.30;0.30;;;;;;;;;;5054933;28;20033;-78
2023/12/20 03:05:29;;;;;;;0.45;0.35;;;;;;;;;;5051915;28;20079;-77
2023/12/20 03:07:55;;;;;;;1.60;0.30;;;;;;;;;;5053847;28;20625;-76
2023/12/20 03:10:21;;;;;;;0.52;0.30;;;;;;;;;;5053404;28;20024;-77
2023/12/20 03:12:47;;;;;;;0.47;0.47;;;;;;;;;;5055299;28;20108;-77
2023/12/20 03:15:14;;;;;;;3.70;0.52;;;;;;;;;;5055879;28;20028;-78
2023/12/20 03:17:40;;;;;;;0.75;0.50;;;;;;;;;;5053719;28;20071;-78
2023/12/20 03:20:06;;;;;;;0.55;0.52;;;;;;;;;;5053004;28;20053;-78
2023/12/20 03:22:32;;;;;;;0.60;0.50;;;;;;;;;;5052691;28;20090;-77
2023/12/20 03:24:58;;;;;;;1.05;0.30;;;;;;;;;;5053552;28;20586;-77
2023/12/20 03:27:24;;;;;;;0.68;0.55;;;;;;;;;;5053194;28;20041;-77
2023/12/20 03:29:50;;;;;;;0.50;0.30;;;;;;;;;;5053599;28;20404;-78
2023/12/20 03:32:17;;;;;;;0.63;0.63;;;;;;;;;;5053545;28;20033;-77
2023/12/20 03:34:43;;;;;;;0.45;0.45;;;;;;;;;;5053143;28;20016;-78
2023/12/20 03:37:09;;;;;;;0.38;0.35;;;;;;;;;;5052743;28;20027;-77
2023/12/20 03:39:35;;;;;;;4.20;0.85;;;;;;;;;;5052904;28;20032;-77
2023/12/20 03:42:01;;;;;;;0.40;0.40;;;;;;;;;;5051970;28;20021;-77
2023/12/20 03:44:27;;;;;;;0.63;0.38;;;;;;;;;;5052839;28;20028;-78
2023/12/20 03:46:53;;;;;;;0.63;0.40;;;;;;;;;;5052668;28;20017;-78
2023/12/20 03:49:20;;;;;;;1.23;0.40;;;;;;;;;;5052626;28;20037;-78
2023/12/20 03:51:46;;;;;;;1.33;0.50;;;;;;;;;;5052874;28;20021;-76
2023/12/20 03:54:12;;;;;;;0.30;0.30;;;;;;;;;;5054168;28;20024;-78
2023/12/20 03:56:38;;;;;;;0.32;0.32;;;;;;;;;;5052527;28;20084;-77
2023/12/20 03:59:04;;;;;;;0.80;0.50;;;;;;;;;;5052769;28;20029;-78
2023/12/20 04:01:30;;;;;;;0.52;0.52;;;;;;;;;;5054108;28;20034;-78
2023/12/20 04:03:56;;;;;;;0.45;0.40;;;;;;;;;;5053432;28;20434;-78
2023/12/20 04:06:22;;;;;;;0.38;0.30;;;;;;;;;;5052179;28;20032;-77
2023/12/20 04:08:48;;;;;;;0.60;0.38;;;;;;;;;;5050484;28;20036;-77
2023/12/20 04:11:15;;;;;;;0.30;0.30;;;;;;;;;;5054194;28;20025;-76
2023/12/20 04:13:41;;;;;;;1.75;0.28;;;;;;;;;;5051704;28;20031;-77
2023/12/20 04:16:07;;;;;;;0.60;0.60;;;;;;;;;;5049334;28;20021;-77
2023/12/20 04:18:33;;;;;;;0.55;0.55;;;;;;;;;;5052767;28;20017;-77
2023/12/20 04:20:59;;;;;;;1.00;0.47;;;;;;;;;;5051819;28;20499;-77
2023/12/20 04:23:25;;;;;;;0.52;0.50;;;;;;;;;;5053329;28;20383;-77
2023/12/20 04:25:51;;;;;;;0.60;0.60;;;;;;;;;;5055448;28;20025;-80
2023/12/20 04:28:17;;;;;;;0.73;0.30;;;;;;;;;;5056200;28;20033;-77
2023/12/20 04:30:43;;;;;;;0.70;0.70;;;;;;;;;;5055408;28;20029;-77
2023/12/20 04:33:09;;;;;;;0.47;0.30;;;;;;;;;;5053236;28;20032;-77
2023/12/20 04:35:36;;;;;;;0.35;0.35;;;;;;;;;;5052545;28;20074;-77
2023/12/20 04:38:02;;;;;;;0.40;0.40;;;;;;;;;;5054911;28;20427;-77
2023/12/20 04:40:28;;;;;;;0.50;0.50;;;;;;;;;;5054281;28;20024;-77
2023/12/20 04:42:54;;;;;;;0.30;0.30;;;;;;;;;;5050080;28;20419;-77
2023/12/20 04:45:20;;;;;;;2.63;0.70;;;;;;;;;;5052215;28;20035;-76
2023/12/20 04:47:46;;;;;;;1.42;0.52;;;;;;;;;;5059687;28;20009;-77
2023/12/20 04:50:14;;;;;;;0.80;0.65;;;;;;;;;;5068820;28;20036;-77
2023/12/20 04:52:40;;;;;;;2.13;0.80;;;;;;;;;;5069238;28;20028;-77
2023/12/20 04:55:06;;;;;;;0.98;0.90;;;;;;;;;;5070673;28;20023;-76
2023/12/20 04:57:32;;;;;;;1.70;0.70;;;;;;;;;;5069046;28;20055;-77
2023/12/20 04:59:59;;;;;;;1.05;0.55;;;;;;;;;;5071088;28;20090;-76
2023/12/20 05:02:25;;;;;;;1.02;0.60;;;;;;;;;;5056027;28;20047;-77
2023/12/20 05:04:51;;;;;;;1.05;0.80;;;;;;;;;;5055895;28;20036;-77
2023/12/20 05:07:17;;;;;;;1.27;0.77;;;;;;;;;;5056679;28;20032;-77
2023/12/20 05:09:43;;;;;;;0.80;0.80;;;;;;;;;;5057350;28;20097;-77
2023/12/20 05:12:09;;;;;;;1.17;0.73;;;;;;;;;;5049603;28;20029;-77
2023/12/20 05:18:29;;;;;;;1.20;0.90;;;;;;;;;;5052077;28;20032;-77
2023/12/20 05:20:55;;;;;;;1.13;1.02;;;;;;;;;;5033743;28;20033;-77
2023/12/20 05:23:21;;;;;;;1.75;0.88;;;;;;;;;;5053783;28;20052;-77
2023/12/20 05:25:47;;;;;;;1.52;1.00;;;;;;;;;;5050767;28;20020;-77
2023/12/20 05:28:13;;;;;;;2.47;1.05;;;;;;;;;;5050951;28;20036;-76
2023/12/20 05:30:39;;;;;;;1.30;1.20;;;;;;;;;;5044352;28;20024;-77
2023/12/20 05:33:05;;;;;;;1.95;1.40;;;;;;;;;;5052591;28;20021;-77
2023/12/20 05:35:31;;;;;;;2.33;1.45;;;;;;;;;;5051466;28;20407;-77
2023/12/20 05:37:57;;;;;;;1.42;1.23;;;;;;;;;;5052855;28;20030;-76
2023/12/20 05:40:24;;;;;;;2.60;1.45;;;;;;;;;;5051226;28;20389;-77
2023/12/20 05:42:50;;;;;;;4.90;3.00;;;;;;;;;;5051672;28;20013;-77
2023/12/20 05:45:16;;;;;;;1.20;1.10;;;;;;;;;;5053145;28;20086;-77
2023/12/20 05:47:42;;;;;;;2.25;1.63;;;;;;;;;;5052979;28;20077;-77
2023/12/20 05:50:09;;;;;;;4.43;1.75;;;;;;;;;;5051709;28;20017;-76
2023/12/20 05:52:35;;;;;;;2.05;1.50;;;;;;;;;;5051921;28;20013;-76
2023/12/20 05:55:01;;;;;;;2.33;1.10;;;;;;;;;;5052410;28;20025;-77
2023/12/20 05:57:27;;;;;;;1.40;1.30;;;;;;;;;;5052179;28;20021;-77
2023/12/20 05:59:53;;;;;;;1.58;1.40;;;;;;;;;;5051026;28;20025;-77
2023/12/20 06:02:20;;;;;;;1.55;1.35;;;;;;;;;;5050911;28;20487;-78
2023/12/20 06:04:46;;;;;;;2.25;1.30;;;;;;;;;;5052679;28;20049;-75
2023/12/20 06:07:13;;;;;;;2.58;1.30;;;;;;;;;;5051787;28;20033;-77
2023/12/20 06:09:39;;;;;;;1.25;1.13;;;;;;;;;;5051744;28;20036;-76
2023/12/20 06:12:05;;;;;;;1.23;1.10;;;;;;;;;;5056161;28;20480;-77
2023/12/20 06:14:31;;;;;;;2.47;1.63;;;;;;;;;;5054133;28;20032;-77
2023/12/20 06:16:58;;;;;;;2.78;1.23;;;;;;;;;;5055458;28;20013;-76
2023/12/20 06:19:24;;;;;;;3.22;1.25;;;;;;;;;;5054626;28;20021;-76
2023/12/20 06:21:50;;;;;;;1.85;1.10;;;;;;;;;;5055752;28;20025;-77
2023/12/20 06:24:16;;;;;;;1.58;1.48;;;;;;;;;;5054929;28;20035;-77
2023/12/20 06:26:42;;;;;;;2.40;1.50;;;;;;;;;;5056299;28;20479;-76
2023/12/20 06:29:09;;;;;;;0.95;0.70;;;;;;;;;;5065309;28;20099;-79
2023/12/20 06:31:35;;;;;;;1.30;1.20;;;;;;;;;;5055930;28;20083;-79
2023/12/20 06:34:01;;;;;;;1.40;1.30;;;;;;;;;;5050167;28;20561;-77
2023/12/20 06:36:28;;;;;;;1.98;1.20;;;;;;;;;;5054771;28;20112;-78
2023/12/20 06:38:54;;;;;;;5.30;1.60;;;;;;;;;;5054933;28;20028;-78
2023/12/20 06:41:20;;;;;;;2.05;1.40;;;;;;;;;;5057946;28;20407;-77
2023/12/20 06:43:47;;;;;;;2.15;1.45;;;;;;;;;;5060822;28;20112;-81
2023/12/20 06:46:13;;;;;;;3.17;1.52;;;;;;;;;;5058792;28;20021;-78
2023/12/20 06:48:40;;;;;;;1.40;1.10;;;;;;;;;;5063613;28;20043;-77
2023/12/20 06:51:06;;;;;;;4.05;1.33;;;;;;;;;;5061863;28;20025;-77
2023/12/20 06:53:32;;;;;;;1.92;1.65;;;;;;;;;;5066885;28;20017;-77
2023/12/20 06:55:58;;;;;;;2.95;1.40;;;;;;;;;;5066667;28;20048;-77
2023/12/20 06:58:24;;;;;;;1.65;1.40;;;;;;;;;;5063768;28;20054;-78
2023/12/20 07:00:51;;;;;;;3.35;1.55;;;;;;;;;;5069357;28;20033;-79
2023/12/20 07:03:18;;;;;;;1.60;1.08;;;;;;;;;;5069921;28;20039;-77
2023/12/20 07:05:44;;;;;;;51.67;23.00;;;;;;;;;;5068108;28;20106;-77
2023/12/20 07:08:10;;;;;;;39.97;18.25;;;;;;;;;;5071423;28;20033;-78
2023/12/20 07:10:37;;;;;;;33.05;15.60;;;;;;;;;;5067361;28;20024;-77
2023/12/20 07:13:03;;;;;;;14.77;8.55;;;;;;;;;;5067247;28;20056;-77
2023/12/20 07:15:29;;;;;;;9.50;5.63;;;;;;;;;;5065282;28;20112;-78
2023/12/20 07:17:55;;;;;;;4.07;3.67;;;;;;;;;;5069825;28;20025;-78
2023/12/20 07:20:22;;;;;;;3.67;2.72;;;;;;;;;;5072405;28;20040;-78
2023/12/20 07:22:48;;;;;;;2.83;2.00;;;;;;;;;;5063293;28;20025;-78
2023/12/20 07:25:14;;;;;;;1.75;1.35;;;;;;;;;;5066048;28;20044;-78
2023/12/20 07:27:40;;;;;;;4.32;3.08;;;;;;;;;;5072423;28;20040;-77
2023/12/20 07:30:07;;;;;;;2.40;2.20;;;;;;;;;;5069224;28;20048;-78
2023/12/20 07:32:33;;;;;;;2.90;0.98;;;;;;;;;;5061876;28;20029;-76
2023/12/20 07:35:00;;;;;;;1.38;0.90;;;;;;;;;;5055442;28;20017;-76
2023/12/20 07:37:26;;;;;;;2.47;1.10;;;;;;;;;;5056449;28;20025;-76
2023/12/20 07:39:52;;;;;;;1.30;1.17;;;;;;;;;;5054587;28;20407;-77
2023/12/20 07:42:18;;;;;;;0.57;0.57;;;;;;;;;;5056191;28;20035;-78
2023/12/20 07:44:44;;;;;;;1.15;0.55;;;;;;;;;;5049023;28;20013;-76
2023/12/20 07:47:15;;;;;;;0.50;0.45;;;;;;;;;;5054511;28;20036;-78
2023/12/20 07:49:41;;;;;;;0.50;0.50;;;;;;;;;;5055166;28;20372;-76
2023/12/20 07:52:08;;;;;;;1.88;1.45;;;;;;;;;;5056636;28;20479;-77
2023/12/20 07:54:34;;;;;;;9.98;6.40;;;;;;;;;;5057983;28;20031;-80
2023/12/20 07:57:00;;;;;;;7.28;5.15;;;;;;;;;;5061502;28;20029;-78
2023/12/20 07:59:26;;;;;;;4.32;3.15;;;;;;;;;;5058210;28;20029;-78
2023/12/20 08:01:52;;;;;;;4.50;3.03;;;;;;;;;;5059174;28;20021;-79
2023/12/20 08:04:18;;;;;;;6.75;3.80;;;;;;;;;;5049826;28;20025;-77
2023/12/20 08:06:44;;;;;;;3.45;2.80;;;;;;;;;;5056773;28;20036;-78
2023/12/20 08:09:11;;;;;;;3.33;2.88;;;;;;;;;;5056977;28;20029;-78
2023/12/20 08:11:37;;;;;;;4.38;3.22;;;;;;;;;;5058645;28;20112;-78
2023/12/20 08:14:03;;;;;;;2.33;2.13;;;;;;;;;;5061284;28;20047;-79
2023/12/20 08:16:29;;;;;;;4.53;4.13;;;;;;;;;;5056456;28;20017;-78
2023/12/20 08:18:55;;;;;;;4.68;3.47;;;;;;;;;;5059941;28;20033;-78
2023/12/20 08:21:22;;;;;;;2.20;2.00;;;;;;;;;;5053002;28;20094;-78
2023/12/20 08:23:49;;;;;;;1.48;1.10;;;;;;;;;;5065071;28;20047;-77
2023/12/20 08:26:20;;;;;;;1.60;1.30;;;;;;;;;;5070231;28;20029;-78
2023/12/20 08:28:46;;;;;;;1.92;0.90;;;;;;;;;;5067297;28;20017;-79
2023/12/20 08:31:16;;;;;;;0.82;0.82;;;;;;;;;;5062504;28;20035;-77
2023/12/20 08:33:42;;;;;;;0.85;0.85;;;;;;;;;;5049290;28;20025;-78
2023/12/20 08:36:08;;;;;;;0.55;0.55;;;;;;;;;;5058635;28;20036;-78
2023/12/20 08:38:34;;;;;;;0.70;0.70;;;;;;;;;;5058216;28;20021;-78
2023/12/20 08:41:01;;;;;;;0.98;0.77;;;;;;;;;;5057623;28;20373;-79
2023/12/20 08:43:27;;;;;;;2.10;0.93;;;;;;;;;;5056191;28;20029;-78
2023/12/20 08:45:53;;;;;;;0.60;0.50;;;;;;;;;;5057223;28;20024;-78
2023/12/20 08:48:19;;;;;;;0.85;0.70;;;;;;;;;;5056906;28;20025;-78
2023/12/20 08:50:47;;;;;;;0.93;0.85;;;;;;;;;;5046339;28;20021;-78
2023/12/20 08:53:13;;;;;;;0.80;0.75;;;;;;;;;;5054860;28;20017;-79
2023/12/20 08:55:39;;;;;;;0.93;0.85;;;;;;;;;;5058794;28;20152;-78
2023/12/20 08:58:06;;;;;;;0.60;0.60;;;;;;;;;;5051153;28;20021;-78
2023/12/20 09:00:33;;;;;;;0.88;0.60;;;;;;;;;;5058652;28;21416;-77
2023/12/20 09:02:59;;;;;;;1.25;1.15;;;;;;;;;;5055435;28;20036;-78
2023/12/20 09:05:25;;;;;;;1.60;1.48;;;;;;;;;;5055170;28;20025;-78
2023/12/20 09:07:51;;;;;;;2.17;1.10;;;;;;;;;;5054919;28;20379;-77
2023/12/20 09:10:21;;;;;;;1.50;1.38;;;;;;;;;;5056878;28;20021;-79
2023/12/20 09:12:48;;;;;;;1.02;0.80;;;;;;;;;;5057806;28;20094;-77
2023/12/20 09:15:15;;;;;;;0.80;0.80;;;;;;;;;;5059413;28;20025;-78
2023/12/20 09:17:41;;;;;;;0.60;0.60;;;;;;;;;;5053665;28;20051;-78
2023/12/20 09:20:08;;;;;;;0.88;0.88;;;;;;;;;;5056017;28;20109;-79
2023/12/20 09:22:34;;;;;;;1.05;0.70;;;;;;;;;;5048629;28;20407;-78
2023/12/20 09:25:01;;;;;;;1.50;0.50;;;;;;;;;;5054929;28;20040;-78
2023/12/20 09:27:28;;;;;;;0.63;0.63;;;;;;;;;;5056047;28;20057;-78
2023/12/20 09:29:54;;;;;;;2.03;0.82;;;;;;;;;;5055758;28;20022;-77
2023/12/20 09:32:20;;;;;;;0.63;0.60;;;;;;;;;;5056875;28;20424;-78
2023/12/20 09:34:47;;;;;;;2.75;0.90;;;;;;;;;;5058480;28;20504;-78
2023/12/20 09:37:13;;;;;;;0.57;0.57;;;;;;;;;;5056895;28;20040;-78
2023/12/20 09:39:39;;;;;;;0.82;0.80;;;;;;;;;;5053756;28;20017;-78
2023/12/20 09:42:06;;;;;;;0.60;0.57;;;;;;;;;;5061262;28;20021;-78
2023/12/20 09:44:34;;;;;;;2.67;0.77;;;;;;;;;;5060963;28;20017;-78
2023/12/20 09:47:02;;;;;;;1.10;0.65;;;;;;;;;;5062857;28;20073;-78
2023/12/20 09:49:29;;;;;;;1.40;0.52;;;;;;;;;;5062570;28;20049;-79
2023/12/20 09:51:56;;;;;;;1.60;0.65;;;;;;;;;;5063252;28;20017;-79
2023/12/20 09:54:22;;;;;;;1.45;0.93;;;;;;;;;;5071651;28;20096;-79
2023/12/20 09:56:48;;;;;;;4.25;2.83;;;;;;;;;;5072269;28;20036;-78
2023/12/20 09:59:15;;;;;;;12.60;7.95;;;;;;;;;;5059925;28;20037;-78
2023/12/20 10:01:41;;;;;;;13.40;9.32;;;;;;;;;;5065902;28;20051;-77
2023/12/20 10:04:08;;;;;;;10.65;7.85;;;;;;;;;;5079323;28;20043;-77
2023/12/20 10:06:38;;;;;;;8.77;4.88;;;;;;;;;;5070901;28;20029;-78
2023/12/20 10:09:04;;;;;;;7.80;5.18;;;;;;;;;;5078643;28;20021;-77
2023/12/20 10:11:31;;;;;;;6.22;5.63;;;;;;;;;;5066757;28;20025;-78
2023/12/20 10:14:01;;;;;;;2.42;2.10;;;;;;;;;;5064214;28;20032;-77
2023/12/20 10:16:27;;;;;;;1.50;1.40;;;;;;;;;;5060958;28;20021;-79
2023/12/20 10:18:54;;;;;;;1.30;1.20;;;;;;;;;;5060278;28;20051;-78
2023/12/20 10:21:20;;;;;;;1.85;1.30;;;;;;;;;;5061398;28;20021;-77
2023/12/20 10:23:46;;;;;;;2.55;0.90;;;;;;;;;;5058355;28;20028;-78
2023/12/20 10:26:21;;;;;;;0.77;0.73;;;;;;;;;;5060978;28;20039;-78
2023/12/20 10:28:47;;;;;;;5.18;1.13;;;;;;;;;;5051760;28;20029;-78
2023/12/20 10:31:26;;;;;;;1.63;0.73;;;;;;;;;;5060063;28;20022;-78
2023/12/20 10:33:52;;;;;;;1.08;0.98;;;;;;;;;;5056459;28;20215;-78
2023/12/20 10:36:18;;;;;;;0.85;0.70;;;;;;;;;;5059935;28;20035;-77
2023/12/20 10:38:45;;;;;;;1.42;0.65;;;;;;;;;;5066508;28;20033;-78
2023/12/20 10:41:12;;;;;;;1.50;1.00;;;;;;;;;;5056071;28;20047;-77
2023/12/20 10:43:38;;;;;;;1.02;0.82;;;;;;;;;;5058186;28;20025;-78
2023/12/20 10:46:05;;;;;;;3.00;0.77;;;;;;;;;;5077340;28;20035;-78
2023/12/20 10:48:32;;;;;;;2.13;0.88;;;;;;;;;;5075787;28;20452;-78
2023/12/20 10:50:58;;;;;;;0.63;0.63;;;;;;;;;;5061371;28;20009;-78
2023/12/20 10:53:25;;;;;;;1.63;0.80;;;;;;;;;;5068429;28;20468;-78
2023/12/20 10:55:53;;;;;;;0.70;0.70;;;;;;;;;;5060113;28;20021;-78
2023/12/20 10:58:21;;;;;;;1.27;0.93;;;;;;;;;;5062600;28;20072;-78
2023/12/20 11:00:48;;;;;;;1.33;0.65;;;;;;;;;;5068234;28;20043;-78
2023/12/20 11:03:16;;;;;;;0.75;0.75;;;;;;;;;;5068925;28;20108;-78
2023/12/20 11:05:50;;;;;;;2.00;0.90;;;;;;;;;;5061983;28;20029;-77
2023/12/20 11:08:25;;;;;;;0.98;0.90;;;;;;;;;;5067257;28;20037;-77
2023/12/20 11:11:10;;;;;;;1.48;0.93;;;;;;;;;;5068154;28;20021;-78
2023/12/20 11:13:38;;;;;;;1.60;0.98;;;;;;;;;;5071914;28;20067;-77
2023/12/20 11:16:05;;;;;;;1.48;1.10;;;;;;;;;;5075397;28;20028;-78
2023/12/20 11:18:32;;;;;;;2.25;1.35;;;;;;;;;;5059745;28;20033;-78
2023/12/20 11:21:05;;;;;;;2.03;1.70;;;;;;;;;;5055463;28;20021;-78
2023/12/20 11:23:35;;;;;;;3.75;1.90;;;;;;;;;;5057317;28;20056;-78
2023/12/20 11:26:02;;;;;;;3.45;2.05;;;;;;;;;;5054669;28;20499;-78
2023/12/20 11:28:29;;;;;;;3.17;2.13;;;;;;;;;;5066510;28;20024;-78
2023/12/20 11:30:59;;;;;;;1.92;1.48;;;;;;;;;;5065729;28;20096;-78
2023/12/20 11:33:30;;;;;;;4.32;2.20;;;;;;;;;;5056910;28;20028;-77
2023/12/20 11:35:57;;;;;;;1.73;1.40;;;;;;;;;;5055496;28;20009;-77
2023/12/20 11:38:23;;;;;;;1.25;1.02;;;;;;;;;;5055210;28;20483;-78
2023/12/20 11:40:50;;;;;;;1.45;1.05;;;;;;;;;;5062477;28;20396;-77
2023/12/20 11:43:35;;;;;;;1.88;1.58;;;;;;;;;;5054800;28;20021;-76
2023/12/20 11:46:09;;;;;;;2.20;1.20;;;;;;;;;;5046963;28;20165;-76
2023/12/20 11:48:39;;;;;;;1.65;1.27;;;;;;;;;;5069214;28;20033;-76
2023/12/20 11:51:12;;;;;;;2.33;0.90;;;;;;;;;;5060769;28;20082;-76
2023/12/20 11:53:38;;;;;;;2.17;1.17;;;;;;;;;;5053846;28;20025;-77
2023/12/20 11:56:08;;;;;;;1.30;1.02;;;;;;;;;;5053695;28;20506;-76
2023/12/20 11:58:35;;;;;;;2.67;1.63;;;;;;;;;;5054128;28;20033;-76
2023/12/20 12:01:07;;;;;;;2.20;1.00;;;;;;;;;;5052828;28;20028;-77
2023/12/20 12:03:33;;;;;;;7.50;1.83;;;;;;;;;;5055337;28;20391;-77
2023/12/20 12:06:00;;;;;;;1.52;1.35;;;;;;;;;;5054144;28;20032;-77
2023/12/20 12:08:26;;;;;;;2.72;1.20;;;;;;;;;;5053609;28;20029;-77
2023/12/20 12:10:53;;;;;;;1.90;1.20;;;;;;;;;;5055015;28;20033;-78
2023/12/20 12:13:19;;;;;;;1.00;0.90;;;;;;;;;;5054344;28;20150;-75
2023/12/20 12:15:45;;;;;;;1.00;0.90;;;;;;;;;;5052685;28;20028;-77
2023/12/20 12:18:11;;;;;;;1.75;1.40;;;;;;;;;;5053685;28;20496;-76
2023/12/20 12:20:37;;;;;;;2.55;1.40;;;;;;;;;;5053623;28;20083;-77
2023/12/20 12:23:06;;;;;;;1.35;1.10;;;;;;;;;;5048048;28;20021;-76
2023/12/20 12:25:32;;;;;;;2.28;1.25;;;;;;;;;;5051895;28;20398;-77
2023/12/20 12:27:59;;;;;;;1.55;0.80;;;;;;;;;;5054113;28;20059;-76
2023/12/20 12:30:25;;;;;;;1.75;0.88;;;;;;;;;;5053185;28;20031;-77
2023/12/20 12:32:52;;;;;;;2.05;1.13;;;;;;;;;;5053584;28;20020;-76
2023/12/20 12:35:19;;;;;;;0.90;0.80;;;;;;;;;;5053713;28;20459;-76
2023/12/20 12:37:45;;;;;;;1.92;1.35;;;;;;;;;;5053817;28;20490;-77
2023/12/20 12:40:13;;;;;;;1.92;1.45;;;;;;;;;;5053361;28;20083;-76
2023/12/20 12:42:39;;;;;;;1.42;1.10;;;;;;;;;;5053250;28;20043;-78
2023/12/20 12:45:05;;;;;;;1.23;0.68;;;;;;;;;;5053719;28;20020;-77
2023/12/20 12:47:32;;;;;;;2.72;1.33;;;;;;;;;;5053667;28;20055;-76
2023/12/20 12:49:58;;;;;;;1.27;1.08;;;;;;;;;;5056271;28;20012;-77
2023/12/20 12:52:24;;;;;;;2.50;0.90;;;;;;;;;;5054385;28;20024;-77
2023/12/20 12:54:50;;;;;;;2.03;1.58;;;;;;;;;;5052818;28;20048;-77
2023/12/20 12:57:17;;;;;;;2.55;2.15;;;;;;;;;;5052272;28;20026;-76
2023/12/20 12:59:45;;;;;;;2.58;2.13;;;;;;;;;;5053054;28;20028;-77
2023/12/20 13:02:12;;;;;;;2.13;1.92;;;;;;;;;;5053123;28;20024;-77
2023/12/20 13:04:38;;;;;;;1.60;1.50;;;;;;;;;;5059929;28;20037;-77
2023/12/20 13:07:04;;;;;;;3.22;2.92;;;;;;;;;;5052386;28;20066;-77
2023/12/20 13:09:30;;;;;;;2.70;2.47;;;;;;;;;;5052884;28;20028;-76
2023/12/20 13:11:56;;;;;;;2.92;2.55;;;;;;;;;;5052319;28;20021;-76
2023/12/20 13:14:22;;;;;;;2.55;1.20;;;;;;;;;;5052523;28;20480;-76
2023/12/20 13:16:49;;;;;;;2.53;2.33;;;;;;;;;;5052168;28;20075;-77
2023/12/20 13:19:15;;;;;;;2.50;2.40;;;;;;;;;;5046045;28;20025;-75
2023/12/20 13:21:41;;;;;;;2.78;2.15;;;;;;;;;;5054904;28;20379;-77
2023/12/20 13:24:07;;;;;;;2.80;2.53;;;;;;;;;;5057801;28;20128;-77
2023/12/20 13:26:33;;;;;;;2.90;2.30;;;;;;;;;;5063008;28;20021;-78
2023/12/20 13:28:59;;;;;;;2.67;2.47;;;;;;;;;;5061335;28;20293;-78
2023/12/20 13:31:26;;;;;;;2.72;1.77;;;;;;;;;;5057455;28;20402;-76
2023/12/20 13:33:54;;;;;;;2.15;1.40;;;;;;;;;;5055079;28;20103;-77
2023/12/20 13:36:21;;;;;;;3.22;1.80;;;;;;;;;;5056941;28;20021;-77
2023/12/20 13:38:47;;;;;;;3.90;1.48;;;;;;;;;;5056774;28;20541;-77
2023/12/20 13:41:13;;;;;;;1.13;0.88;;;;;;;;;;5057662;28;20029;-77
2023/12/20 13:43:39;;;;;;;1.65;1.55;;;;;;;;;;5056378;28;20503;-77
2023/12/20 13:46:05;;;;;;;3.00;1.20;;;;;;;;;;5056220;28;20025;-76
2023/12/20 13:48:31;;;;;;;1.80;1.20;;;;;;;;;;5055734;28;20108;-77
2023/12/20 13:50:57;;;;;;;5.22;1.65;;;;;;;;;;5056267;28;20021;-77
2023/12/20 13:53:23;;;;;;;1.52;1.30;;;;;;;;;;5055732;28;20044;-77
2023/12/20 13:55:49;;;;;;;2.05;1.40;;;;;;;;;;5055386;28;20029;-77
2023/12/20 13:58:16;;;;;;;7.00;1.63;;;;;;;;;;5055806;28;20028;-77
2023/12/20 14:00:42;;;;;;;2.03;1.15;;;;;;;;;;5055901;28;20029;-77
2023/12/20 14:03:09;;;;;;;3.10;1.27;;;;;;;;;;5056014;28;20078;-77
2023/12/20 14:05:36;;;;;;;3.05;1.85;;;;;;;;;;5052718;28;20026;-76
2023/12/20 14:08:02;;;;;;;5.38;1.60;;;;;;;;;;5049591;28;20033;-76
2023/12/20 14:10:28;;;;;;;2.55;1.55;;;;;;;;;;5056058;28;20095;-76
2023/12/20 14:12:55;;;;;;;2.33;1.48;;;;;;;;;;5057418;28;20025;-77
2023/12/20 14:15:21;;;;;;;1.85;1.23;;;;;;;;;;5073812;28;20025;-78
2023/12/20 14:17:47;;;;;;;3.33;1.30;;;;;;;;;;5056405;28;20025;-79
2023/12/20 14:20:13;;;;;;;4.30;1.48;;;;;;;;;;5056196;28;20021;-79
2023/12/20 14:22:43;;;;;;;5.85;2.55;;;;;;;;;;5056251;28;20031;-77
2023/12/20 14:25:12;;;;;;;7.55;4.55;;;;;;;;;;5056141;28;20037;-77
2023/12/20 14:27:38;;;;;;;3.53;2.72;;;;;;;;;;5054728;28;20021;-77
2023/12/20 14:30:04;;;;;;;5.93;2.10;;;;;;;;;;5055513;28;20032;-77
2023/12/20 14:32:31;;;;;;;3.72;2.17;;;;;;;;;;5055797;28;20021;-77
2023/12/20 14:34:57;;;;;;;5.13;1.80;;;;;;;;;;5054998;28;20327;-77
2023/12/20 14:37:23;;;;;;;3.35;2.40;;;;;;;;;;5055495;28;20387;-78
2023/12/20 14:39:50;;;;;;;6.15;2.30;;;;;;;;;;5055705;28;20029;-78
2023/12/20 14:42:16;;;;;;;3.75;1.80;;;;;;;;;;5055387;28;20032;-77